createdAt,value
2022-08-09T02:55:58.589Z,19.40
2022-08-09T02:58:36.559Z,19.30
2022-08-09T03:01:11.032Z,19.30
2022-08-09T03:04:17.539Z,19.30
2022-08-09T03:06:31.581Z,19.40
2022-08-09T03:09:03.518Z,19.40
2022-08-09T03:12:05.470Z,19.50
2022-08-09T03:14:28.299Z,19.60
2022-08-09T03:16:58.386Z,19.50
2022-08-09T03:19:58.528Z,19.60
2022-08-09T03:22:24.962Z,19.60
2022-08-09T03:25:05.715Z,19.70
2022-08-09T03:27:45.044Z,19.70
2022-08-09T03:30:29.638Z,19.70
2022-08-09T03:33:13.048Z,19.60
2022-08-09T03:36:12.792Z,19.60
2022-08-09T03:38:43.005Z,19.70
2022-08-09T03:41:15.472Z,19.70
2022-08-09T03:44:03.606Z,19.80
2022-08-09T03:46:36.897Z,19.80
2022-08-09T03:49:09.027Z,19.80
2022-08-09T03:51:55.062Z,19.80
2022-08-09T03:54:32.241Z,19.80
2022-08-09T03:57:04.425Z,19.70
2022-08-09T03:59:53.426Z,19.70
2022-08-09T04:02:28.389Z,19.70
2022-08-09T04:05:00.815Z,19.70
2022-08-09T04:07:33.693Z,19.70
2022-08-09T04:10:29.239Z,19.60
2022-08-09T04:13:04.031Z,19.50
2022-08-09T04:15:52.240Z,19.50
2022-08-09T04:18:24.878Z,19.50
2022-08-09T04:20:53.949Z,19.50
2022-08-09T04:23:24.977Z,19.40
2022-08-09T04:25:55.721Z,19.40
2022-08-09T04:28:33.180Z,19.40
2022-08-09T04:31:12.999Z,19.40
2022-08-09T04:33:52.132Z,19.40
2022-08-09T04:36:26.948Z,19.40
2022-08-09T04:38:56.533Z,19.40
2022-08-09T04:41:32.357Z,19.30
2022-08-09T04:44:06.816Z,19.30
2022-08-09T04:46:58.705Z,19.30
2022-08-09T04:49:53.846Z,19.30
2022-08-09T04:52:26.730Z,19.20
2022-08-09T04:54:58.006Z,19.20
2022-08-09T04:57:58.335Z,19.10
2022-08-09T05:00:17.358Z,19.20
2022-08-09T05:02:48.541Z,19.10
2022-08-09T05:05:32.109Z,19.10
2022-08-09T05:08:13.865Z,19.20
2022-08-09T05:10:44.522Z,19.20
2022-08-09T05:13:14.372Z,19.20
2022-08-09T05:15:52.271Z,19.10
2022-08-09T05:18:38.838Z,19.10
2022-08-09T05:21:23.257Z,19.00
2022-08-09T05:24:00.343Z,18.90
2022-08-09T05:26:41.116Z,18.90
2022-08-09T05:29:22.178Z,19.00
2022-08-09T05:31:56.200Z,18.90
2022-08-09T05:34:31.100Z,18.90
2022-08-09T05:37:05.335Z,18.90
2022-08-09T05:39:43.963Z,18.80
2022-08-09T05:42:17.901Z,18.90
2022-08-09T05:44:52.447Z,19.00
2022-08-09T05:47:22.935Z,19.10
2022-08-09T05:50:25.156Z,19.10
2022-08-09T05:52:44.359Z,19.10
2022-08-09T05:55:20.983Z,19.20
2022-08-09T05:57:57.441Z,19.20
2022-08-09T06:00:29.683Z,19.20
2022-08-09T06:02:58.979Z,19.20
2022-08-09T06:05:31.255Z,19.20
2022-08-09T06:08:19.534Z,19.20
2022-08-09T06:10:53.731Z,19.30
2022-08-09T06:13:22.555Z,19.40
2022-08-09T06:15:52.336Z,19.40
2022-08-09T06:18:23.949Z,19.60
2022-08-09T06:20:54.768Z,19.70
2022-08-09T06:23:55.093Z,19.90
2022-08-09T06:26:20.123Z,20.00
2022-08-09T06:29:01.083Z,20.20
2022-08-09T06:31:40.554Z,20.30
2022-08-09T06:34:23.542Z,20.50
2022-08-09T06:36:59.355Z,20.60
2022-08-09T06:39:48.333Z,20.70
2022-08-09T06:42:24.856Z,20.70
2022-08-09T06:44:58.139Z,20.90
2022-08-09T06:47:39.391Z,21.00
2022-08-09T06:50:14.575Z,21.10
2022-08-09T06:52:49.126Z,21.20
2022-08-09T06:55:23.370Z,21.30
2022-08-09T06:58:02.902Z,21.40
2022-08-09T07:00:56.943Z,21.40
2022-08-09T07:03:28.040Z,21.50
2022-08-09T07:06:04.075Z,21.60
2022-08-09T07:08:37.027Z,21.70
2022-08-09T07:11:12.796Z,21.70
2022-08-09T07:14:04.161Z,21.80
2022-08-09T07:16:41.780Z,21.90
2022-08-09T07:19:15.368Z,22.10
2022-08-09T07:21:56.046Z,22.10
2022-08-09T07:24:32.155Z,22.20
2022-08-09T07:27:27.407Z,22.20
2022-08-09T07:30:01.136Z,22.30
2022-08-09T07:32:34.566Z,22.40
2022-08-09T07:35:10.804Z,22.50
2022-08-09T07:37:43.771Z,22.50
2022-08-09T07:40:16.721Z,22.60
2022-08-09T07:42:54.454Z,22.60
2022-08-09T07:45:38.436Z,22.70
2022-08-09T07:48:25.287Z,22.70
2022-08-09T07:52:03.289Z,22.70
2022-08-09T07:54:08.829Z,22.90
2022-08-09T07:56:45.018Z,22.90
2022-08-09T07:59:34.830Z,23.00
2022-08-09T08:02:09.881Z,23.00
2022-08-09T08:04:39.003Z,23.10
2022-08-09T08:07:15.299Z,23.10
2022-08-09T08:10:07.821Z,23.20
2022-08-09T08:12:43.730Z,23.20
2022-08-09T08:15:16.849Z,23.30
2022-08-09T08:17:54.524Z,23.30
2022-08-09T08:20:28.931Z,23.40
2022-08-09T08:23:03.673Z,23.40
2022-08-09T08:25:44.355Z,23.50
2022-08-09T08:28:18.216Z,23.50
2022-08-09T08:30:56.444Z,23.60
2022-08-09T08:33:25.173Z,23.70
2022-08-09T08:35:59.156Z,23.80
2022-08-09T08:38:30.393Z,23.90
2022-08-09T08:40:59.590Z,23.90
2022-08-09T08:43:28.589Z,23.90
2022-08-09T08:46:31.898Z,23.90
2022-08-09T08:48:56.587Z,23.90
2022-08-09T08:51:27.431Z,23.90
2022-08-09T08:54:20.310Z,24.00
2022-08-09T08:56:57.221Z,24.00
2022-08-09T08:59:28.136Z,24.10
2022-08-09T09:02:30.815Z,24.10
2022-08-09T09:05:06.221Z,24.10
2022-08-09T09:07:42.590Z,24.20
2022-08-09T09:10:12.171Z,24.30
2022-08-09T09:12:45.428Z,24.30
2022-08-09T09:15:28.585Z,24.30
2022-08-09T09:17:59.162Z,24.30
2022-08-09T09:20:27.737Z,24.30
2022-08-09T09:23:01.926Z,24.40
2022-08-09T09:26:01.287Z,24.40
2022-08-09T09:29:02.904Z,24.40
2022-08-09T09:32:04.550Z,24.50
2022-08-09T09:34:18.308Z,24.60
2022-08-09T09:36:54.109Z,24.60
2022-08-09T09:39:42.538Z,24.70
2022-08-09T09:42:26.208Z,24.80
2022-08-09T09:44:59.707Z,24.90
2022-08-09T09:47:29.957Z,24.90
2022-08-09T09:50:14.987Z,24.90
2022-08-09T09:52:54.854Z,25.00
2022-08-09T09:55:32.110Z,24.90
2022-08-09T09:58:18.921Z,24.90
2022-08-09T10:00:54.094Z,24.90
2022-08-09T10:03:42.810Z,24.90
2022-08-09T10:06:14.320Z,24.90
2022-08-09T10:08:57.424Z,25.00
2022-08-09T10:11:59.696Z,25.00
2022-08-09T10:14:30.738Z,25.20
2022-08-09T10:17:24.155Z,25.20
2022-08-09T10:20:00.706Z,25.20
2022-08-09T10:22:36.873Z,25.30
2022-08-09T10:25:11.922Z,25.40
2022-08-09T10:27:56.016Z,25.40
2022-08-09T10:33:44.846Z,25.50
2022-08-09T10:36:11.488Z,25.50
2022-08-09T10:38:55.920Z,25.60
2022-08-09T10:41:26.691Z,25.60
2022-08-09T10:43:59.364Z,25.60
2022-08-09T10:46:57.520Z,25.70
2022-08-09T10:49:50.441Z,25.80
2022-08-09T10:52:44.751Z,25.80
2022-08-09T10:55:27.610Z,26.00
2022-08-09T10:58:01.001Z,26.00
2022-08-09T11:00:51.030Z,26.00
2022-08-09T11:03:50.960Z,26.00
2022-08-09T11:06:25.371Z,26.10
2022-08-09T11:08:54.250Z,26.20
2022-08-09T11:11:26.771Z,26.20
2022-08-09T11:14:35.497Z,26.30
2022-08-09T11:17:56.867Z,26.40
2022-08-09T11:20:47.641Z,26.60
2022-08-09T11:23:23.951Z,26.60
2022-08-09T11:25:54.828Z,26.60
2022-08-09T11:28:55.840Z,26.60
2022-08-09T11:31:49.976Z,26.60
2022-08-09T11:34:31.265Z,26.60
2022-08-09T11:37:02.761Z,26.70
2022-08-09T11:40:04.972Z,26.70
2022-08-09T11:42:42.238Z,26.70
2022-08-09T11:45:42.618Z,26.80
2022-08-09T11:48:25.348Z,26.80
2022-08-09T11:52:48.813Z,26.80
2022-08-09T11:54:27.605Z,26.60
2022-08-09T11:57:47.841Z,26.70
2022-08-09T12:00:27.378Z,26.80
2022-08-09T12:02:58.001Z,26.90
2022-08-09T12:05:39.517Z,26.90
2022-08-09T12:08:12.157Z,26.90
2022-08-09T12:10:48.491Z,26.90
2022-08-09T12:14:08.501Z,27.00
2022-08-09T12:16:30.431Z,27.00
2022-08-09T12:19:09.237Z,27.10
2022-08-09T12:21:48.585Z,27.10
2022-08-09T12:24:24.942Z,27.10
2022-08-09T12:29:09.975Z,27.10
2022-08-09T12:29:58.655Z,27.10
2022-08-09T12:32:33.518Z,27.30
2022-08-09T12:35:05.648Z,27.30
2022-08-09T12:37:49.725Z,27.30
2022-08-09T12:40:23.262Z,27.30
2022-08-09T12:42:55.867Z,27.30
2022-08-09T12:45:34.178Z,27.30
2022-08-09T12:48:30.956Z,27.40
2022-08-09T12:51:03.946Z,27.50
2022-08-09T12:53:38.815Z,27.40
2022-08-09T12:56:43.682Z,27.40
2022-08-09T12:59:11.850Z,27.50
2022-08-09T13:01:48.852Z,27.50
2022-08-09T13:04:33.262Z,27.40
2022-08-09T13:07:14.564Z,27.20
2022-08-09T13:09:55.539Z,27.30
2022-08-09T13:15:24.867Z,27.40
2022-08-09T13:18:06.145Z,27.40
2022-08-09T13:21:03.796Z,27.40
2022-08-09T13:26:36.507Z,27.60
2022-08-09T13:29:13.199Z,27.70
2022-08-09T13:32:17.164Z,27.80
2022-08-09T13:34:48.660Z,27.90
2022-08-09T13:37:51.211Z,27.90
2022-08-09T13:41:51.430Z,28.00
2022-08-09T13:42:56.238Z,27.90
2022-08-09T13:45:32.211Z,28.00
2022-08-09T13:48:15.636Z,28.00
2022-08-09T13:50:44.125Z,27.90
2022-08-09T13:53:17.692Z,27.80
2022-08-09T13:55:47.916Z,27.80
2022-08-09T13:58:16.896Z,27.70
2022-08-09T14:00:49.936Z,27.70
2022-08-09T14:04:01.889Z,27.70
2022-08-09T14:06:14.774Z,27.70
2022-08-09T14:08:48.273Z,27.70
2022-08-09T14:11:17.482Z,27.80
2022-08-09T14:14:22.922Z,27.80
2022-08-09T14:16:35.360Z,27.90
2022-08-09T14:19:07.048Z,27.80
2022-08-09T14:21:35.705Z,27.90
2022-08-09T14:24:18.317Z,27.90
2022-08-09T14:26:51.200Z,27.90
2022-08-09T14:30:04.126Z,27.80
2022-08-09T14:32:11.398Z,27.80
2022-08-09T14:34:43.554Z,27.70
2022-08-09T14:37:13.520Z,27.70
2022-08-09T14:39:47.891Z,27.70
2022-08-09T14:42:30.776Z,27.60
2022-08-09T14:46:55.116Z,27.50
2022-08-09T14:47:58.028Z,27.50
2022-08-09T14:50:32.910Z,27.50
2022-08-09T14:53:06.275Z,27.50
2022-08-09T14:55:42.084Z,27.50
2022-08-09T14:58:16.877Z,27.50
2022-08-09T15:00:48.191Z,27.40
2022-08-09T15:03:20.199Z,27.40
2022-08-09T15:05:56.887Z,27.40
2022-08-09T15:08:30.276Z,27.40
2022-08-09T15:11:00.368Z,27.40
2022-08-09T15:13:48.479Z,27.40
2022-08-09T15:16:19.966Z,27.30
2022-08-09T15:18:52.245Z,27.20
2022-08-09T15:21:55.996Z,27.10
2022-08-09T15:24:22.569Z,27.00
2022-08-09T15:26:55.555Z,27.10
2022-08-09T15:30:48.593Z,27.10
2022-08-09T15:32:29.862Z,27.00
2022-08-09T15:35:18.606Z,27.00
2022-08-09T15:38:11.093Z,26.90
2022-08-09T15:40:44.241Z,26.80
2022-08-09T15:43:13.683Z,26.80
2022-08-09T15:46:07.662Z,26.70
2022-08-09T15:48:32.094Z,26.70
2022-08-09T15:51:01.029Z,26.60
2022-08-09T15:54:03.907Z,26.70
2022-08-09T15:56:21.538Z,26.70
2022-08-09T15:58:57.590Z,26.60
2022-08-09T16:01:26.692Z,26.60
2022-08-09T16:04:00.567Z,26.50
2022-08-09T16:06:35.392Z,26.60
2022-08-09T16:09:06.496Z,26.50
2022-08-09T16:11:36.309Z,26.40
2022-08-09T16:14:08.047Z,26.30
2022-08-09T16:16:38.006Z,26.30
2022-08-09T16:19:08.518Z,26.40
2022-08-09T16:21:37.688Z,26.30
2022-08-09T16:24:13.054Z,26.30
2022-08-09T16:26:59.125Z,26.30
2022-08-09T16:29:37.592Z,26.30
2022-08-09T16:32:33.632Z,26.20
2022-08-09T16:35:03.308Z,26.30
2022-08-09T16:37:54.889Z,26.20
2022-08-09T16:40:29.866Z,26.20
2022-08-09T16:43:10.272Z,26.20
2022-08-09T16:45:43.626Z,26.20
2022-08-09T16:48:50.201Z,26.20
2022-08-09T16:51:07.430Z,26.10
2022-08-09T16:53:37.523Z,26.20
2022-08-09T16:56:14.526Z,26.10
2022-08-09T16:58:50.417Z,26.10
2022-08-09T17:01:24.761Z,26.10
2022-08-09T17:03:54.005Z,26.10
2022-08-09T17:06:31.289Z,26.10
2022-08-09T17:09:44.948Z,26.10
2022-08-09T17:11:53.075Z,26.10
2022-08-09T17:14:27.903Z,26.10
2022-08-09T17:16:59.679Z,26.10
2022-08-09T17:20:05.180Z,26.00
2022-08-09T17:22:28.667Z,26.00
2022-08-09T17:25:03.066Z,25.90
2022-08-09T17:27:37.523Z,25.90
2022-08-09T17:30:13.002Z,25.80
2022-08-09T17:32:46.478Z,25.80
2022-08-09T17:35:16.262Z,25.80
2022-08-09T17:38:14.574Z,25.70
2022-08-09T17:40:38.802Z,25.70
2022-08-09T17:43:33.485Z,25.70
2022-08-09T17:46:06.948Z,25.60
2022-08-09T17:48:40.295Z,25.60
2022-08-09T17:51:18.234Z,25.60
2022-08-09T17:53:52.141Z,25.50
2022-08-09T17:56:27.333Z,25.50
2022-08-09T17:59:09.643Z,25.50
2022-08-09T18:02:06.173Z,25.40
2022-08-09T18:04:37.717Z,25.40
2022-08-09T18:07:23.628Z,25.30
2022-08-09T18:10:05.156Z,25.20
2022-08-09T18:12:40.310Z,25.20
2022-08-09T18:15:13.400Z,25.20
2022-08-09T18:18:02.906Z,25.20
2022-08-09T18:20:54.934Z,25.20
2022-08-09T18:24:10.067Z,25.20
2022-08-09T18:26:15.653Z,25.10
2022-08-09T18:30:34.564Z,25.20
2022-08-09T18:31:55.047Z,25.20
2022-08-09T18:34:24.406Z,25.20
2022-08-09T18:36:54.534Z,25.20
2022-08-09T18:39:32.124Z,25.10
2022-08-09T18:42:08.130Z,25.10
2022-08-09T18:44:46.082Z,25.00
2022-08-09T18:47:27.574Z,25.00
2022-08-09T18:50:03.359Z,24.90
2022-08-09T18:52:40.267Z,24.90
2022-08-09T18:55:15.289Z,24.90
2022-08-09T18:57:59.721Z,24.90
2022-08-09T19:00:31.491Z,24.90
2022-08-09T19:03:02.880Z,24.90
2022-08-09T19:06:02.292Z,24.90
2022-08-09T19:08:21.101Z,24.90
2022-08-09T19:10:56.784Z,24.90
2022-08-09T19:13:38.398Z,24.90
2022-08-09T19:16:20.985Z,24.90
2022-08-09T19:18:51.458Z,24.90
2022-08-09T19:21:47.412Z,24.90
2022-08-09T19:24:39.447Z,24.90
2022-08-09T19:26:58.214Z,24.90
2022-08-09T19:29:26.846Z,24.80
2022-08-09T19:32:00.038Z,24.80
2022-08-09T19:34:30.090Z,24.70
2022-08-09T19:36:59.064Z,24.70
2022-08-09T19:39:29.315Z,24.70
2022-08-09T19:42:19.148Z,24.70
2022-08-09T19:44:51.272Z,24.70
2022-08-09T19:47:22.971Z,24.70
2022-08-09T19:50:07.638Z,24.70
2022-08-09T19:52:49.755Z,24.60
2022-08-09T19:55:30.916Z,24.60
2022-08-09T19:58:16.556Z,24.60
2022-08-09T20:00:46.493Z,24.50
2022-08-09T20:04:17.443Z,24.50
2022-08-09T20:06:22.707Z,24.50
2022-08-09T20:08:56.993Z,24.50
2022-08-09T20:11:27.169Z,24.40
2022-08-09T20:14:15.106Z,24.50
2022-08-09T20:16:53.965Z,24.40
2022-08-09T20:19:48.454Z,24.40
2022-08-09T20:22:14.405Z,24.30
2022-08-09T20:24:53.303Z,24.30
2022-08-09T20:27:23.205Z,24.20
2022-08-09T20:29:51.683Z,24.20
2022-08-09T20:32:31.396Z,24.20
2022-08-09T20:35:02.527Z,24.20
2022-08-09T20:37:37.074Z,24.10
2022-08-09T20:40:26.855Z,24.10
2022-08-09T20:42:59.737Z,23.90
2022-08-09T20:45:59.194Z,23.90
2022-08-09T20:48:21.306Z,23.90
2022-08-09T20:50:55.691Z,23.90
2022-08-09T20:53:36.781Z,23.90
2022-08-09T20:56:21.242Z,23.90
2022-08-09T20:58:54.492Z,23.90
2022-08-09T21:01:34.725Z,23.90
2022-08-09T21:05:57.732Z,23.90
2022-08-09T21:07:11.255Z,23.80
2022-08-09T21:09:56.153Z,23.80
2022-08-09T21:15:17.646Z,23.70
2022-08-09T21:18:23.813Z,23.70
2022-08-09T21:20:42.609Z,23.60
2022-08-09T21:23:13.541Z,23.60
2022-08-09T21:25:55.782Z,23.50
2022-08-09T21:28:35.115Z,23.40
2022-08-09T21:31:16.162Z,23.30
2022-08-09T21:33:50.603Z,23.30
2022-08-09T21:36:20.430Z,23.30
2022-08-09T21:38:56.687Z,23.20
2022-08-09T21:42:03.810Z,23.10
2022-08-09T21:44:32.983Z,23.00
2022-08-09T21:47:05.526Z,23.00
2022-08-09T21:49:39.858Z,23.00
2022-08-09T21:52:16.620Z,23.00
2022-08-09T21:55:03.998Z,23.00
2022-08-09T21:57:59.780Z,23.00
2022-08-09T22:00:32.489Z,23.00
2022-08-09T22:03:04.769Z,22.90
2022-08-09T22:05:37.594Z,22.90
2022-08-09T22:08:14.735Z,22.90
2022-08-09T22:11:49.138Z,22.90
2022-08-09T22:13:35.954Z,22.90
2022-08-09T22:16:08.298Z,22.70
2022-08-09T22:18:53.683Z,22.70
2022-08-09T22:21:45.394Z,22.80
2022-08-09T22:24:17.335Z,22.80
2022-08-09T22:26:51.760Z,22.80
2022-08-09T22:29:28.436Z,22.70
2022-08-09T22:32:08.107Z,22.80
2022-08-09T22:35:02.596Z,22.80
2022-08-09T22:37:39.948Z,22.80
2022-08-09T22:40:19.921Z,22.90
2022-08-09T22:42:49.393Z,22.90
2022-08-09T22:48:10.522Z,22.80
2022-08-09T22:48:29.815Z,22.90
2022-08-09T22:50:57.309Z,22.90
2022-08-09T22:53:25.753Z,22.90
2022-08-09T22:56:31.458Z,22.90
2022-08-09T22:59:05.444Z,22.80
2022-08-09T23:01:36.544Z,22.80
2022-08-09T23:04:07.319Z,22.80
2022-08-09T23:06:49.978Z,22.80
2022-08-09T23:09:18.700Z,22.70
2022-08-09T23:11:47.085Z,22.70
2022-08-09T23:14:17.457Z,22.70
2022-08-09T23:16:54.146Z,22.80
2022-08-09T23:19:22.711Z,22.70
2022-08-09T23:21:51.117Z,22.80
2022-08-09T23:24:19.414Z,22.80
2022-08-09T23:26:48.092Z,22.80
2022-08-09T23:29:16.538Z,22.70
2022-08-09T23:31:45.100Z,22.70
2022-08-09T23:34:14.841Z,22.70
2022-08-09T23:36:43.737Z,22.70
2022-08-09T23:39:12.226Z,22.70
2022-08-09T23:41:41.821Z,22.60
2022-08-09T23:44:10.099Z,22.60
2022-08-09T23:49:29.383Z,22.40
2022-08-09T23:51:57.908Z,22.30
2022-08-09T23:54:26.578Z,22.20
2022-08-09T23:56:55.860Z,22.20
2022-08-09T23:59:45.920Z,22.10
